sensor_id;sensor_type;location;lat;lon;timestamp;temperature;humidity
53748;DHT22;39655;53.210;5.768;2022-07-03T00:01:44;18.30;74.80
53748;DHT22;39655;53.210;5.768;2022-07-03T00:04:10;18.20;74.90
53748;DHT22;39655;53.210;5.768;2022-07-03T00:06:36;18.10;75.00
53748;DHT22;39655;53.210;5.768;2022-07-03T00:09:05;18.10;75.20
53748;DHT22;39655;53.210;5.768;2022-07-03T00:11:32;18.10;75.40
53748;DHT22;39655;53.210;5.768;2022-07-03T00:14:06;18.10;75.50
53748;DHT22;39655;53.210;5.768;2022-07-03T00:16:34;18.00;75.60
53748;DHT22;39655;53.210;5.768;2022-07-03T00:19:00;17.90;75.80
53748;DHT22;39655;53.210;5.768;2022-07-03T00:21:35;17.90;76.10
53748;DHT22;39655;53.210;5.768;2022-07-03T00:24:10;17.90;76.60
53748;DHT22;39655;53.210;5.768;2022-07-03T00:26:41;17.90;76.70
53748;DHT22;39655;53.210;5.768;2022-07-03T00:29:15;17.80;76.50
53748;DHT22;39655;53.210;5.768;2022-07-03T00:31:42;17.70;76.40
53748;DHT22;39655;53.210;5.768;2022-07-03T00:34:15;17.70;76.50
53748;DHT22;39655;53.210;5.768;2022-07-03T00:36:42;17.70;76.50
53748;DHT22;39655;53.210;5.768;2022-07-03T00:39:09;17.60;76.60
53748;DHT22;39655;53.210;5.768;2022-07-03T00:41:37;17.60;76.80
53748;DHT22;39655;53.210;5.768;2022-07-03T00:44:04;17.60;76.90
53748;DHT22;39655;53.210;5.768;2022-07-03T00:46:30;17.60;77.00
53748;DHT22;39655;53.210;5.768;2022-07-03T00:48:57;17.60;77.30
53748;DHT22;39655;53.210;5.768;2022-07-03T00:51:37;17.50;77.20
53748;DHT22;39655;53.210;5.768;2022-07-03T00:54:06;17.50;77.10
53748;DHT22;39655;53.210;5.768;2022-07-03T00:56:34;17.50;77.30
53748;DHT22;39655;53.210;5.768;2022-07-03T00:59:03;17.40;77.40
53748;DHT22;39655;53.210;5.768;2022-07-03T01:01:35;17.30;77.20
53748;DHT22;39655;53.210;5.768;2022-07-03T01:04:09;17.30;77.20
53748;DHT22;39655;53.210;5.768;2022-07-03T01:06:52;17.30;77.10
53748;DHT22;39655;53.210;5.768;2022-07-03T01:09:32;17.20;77.70
53748;DHT22;39655;53.210;5.768;2022-07-03T01:12:07;17.20;77.90
53748;DHT22;39655;53.210;5.768;2022-07-03T01:17:40;17.20;78.20
53748;DHT22;39655;53.210;5.768;2022-07-03T01:20:13;17.20;78.40
53748;DHT22;39655;53.210;5.768;2022-07-03T01:22:59;17.20;78.50
53748;DHT22;39655;53.210;5.768;2022-07-03T01:25:47;17.20;78.60
53748;DHT22;39655;53.210;5.768;2022-07-03T01:28:20;17.20;78.60
53748;DHT22;39655;53.210;5.768;2022-07-03T01:30:54;17.10;78.70
53748;DHT22;39655;53.210;5.768;2022-07-03T01:33:27;17.10;78.90
53748;DHT22;39655;53.210;5.768;2022-07-03T01:36:04;17.10;78.80
53748;DHT22;39655;53.210;5.768;2022-07-03T01:38:38;17.10;78.90
53748;DHT22;39655;53.210;5.768;2022-07-03T01:41:08;17.10;79.00
53748;DHT22;39655;53.210;5.768;2022-07-03T01:43:44;17.10;79.10
53748;DHT22;39655;53.210;5.768;2022-07-03T01:46:23;17.10;79.40
53748;DHT22;39655;53.210;5.768;2022-07-03T01:48:54;17.00;79.40
53748;DHT22;39655;53.210;5.768;2022-07-03T01:51:23;17.00;79.40
53748;DHT22;39655;53.210;5.768;2022-07-03T01:53:55;17.00;79.20
53748;DHT22;39655;53.210;5.768;2022-07-03T01:56:23;17.00;79.40
53748;DHT22;39655;53.210;5.768;2022-07-03T01:58:52;16.90;79.30
53748;DHT22;39655;53.210;5.768;2022-07-03T02:01:54;16.90;79.20
53748;DHT22;39655;53.210;5.768;2022-07-03T02:10:22;16.80;79.50
53748;DHT22;39655;53.210;5.768;2022-07-03T02:13:00;16.80;79.20
53748;DHT22;39655;53.210;5.768;2022-07-03T02:15:34;16.80;79.60
53748;DHT22;39655;53.210;5.768;2022-07-03T02:21:17;16.90;79.70
53748;DHT22;39655;53.210;5.768;2022-07-03T02:26:38;16.80;79.70
53748;DHT22;39655;53.210;5.768;2022-07-03T02:29:07;16.80;79.60
53748;DHT22;39655;53.210;5.768;2022-07-03T02:31:42;16.80;79.50
53748;DHT22;39655;53.210;5.768;2022-07-03T02:34:16;16.90;78.90
53748;DHT22;39655;53.210;5.768;2022-07-03T02:36:47;16.90;79.30
53748;DHT22;39655;53.210;5.768;2022-07-03T02:39:45;16.90;79.40
53748;DHT22;39655;53.210;5.768;2022-07-03T02:42:28;17.00;79.60
53748;DHT22;39655;53.210;5.768;2022-07-03T02:44:57;17.00;79.40
53748;DHT22;39655;53.210;5.768;2022-07-03T02:50:22;17.10;79.40
53748;DHT22;39655;53.210;5.768;2022-07-03T02:52:59;17.10;79.50
53748;DHT22;39655;53.210;5.768;2022-07-03T02:55:42;17.10;79.30
53748;DHT22;39655;53.210;5.768;2022-07-03T03:01:13;17.10;78.60
53748;DHT22;39655;53.210;5.768;2022-07-03T03:03:48;17.10;79.00
53748;DHT22;39655;53.210;5.768;2022-07-03T03:06:21;17.10;78.90
53748;DHT22;39655;53.210;5.768;2022-07-03T03:08:56;17.10;76.60
53748;DHT22;39655;53.210;5.768;2022-07-03T03:11:43;17.20;76.10
53748;DHT22;39655;53.210;5.768;2022-07-03T03:14:15;17.20;75.80
53748;DHT22;39655;53.210;5.768;2022-07-03T03:16:51;17.20;75.90
53748;DHT22;39655;53.210;5.768;2022-07-03T03:19:24;17.10;76.40
53748;DHT22;39655;53.210;5.768;2022-07-03T03:24:58;17.10;76.40
53748;DHT22;39655;53.210;5.768;2022-07-03T03:27:26;17.00;76.70
53748;DHT22;39655;53.210;5.768;2022-07-03T03:29:53;17.00;76.90
53748;DHT22;39655;53.210;5.768;2022-07-03T03:32:25;17.00;77.00
53748;DHT22;39655;53.210;5.768;2022-07-03T03:34:54;17.00;77.20
53748;DHT22;39655;53.210;5.768;2022-07-03T03:37:22;17.00;77.10
53748;DHT22;39655;53.210;5.768;2022-07-03T03:39:51;17.00;77.40
53748;DHT22;39655;53.210;5.768;2022-07-03T03:42:23;17.00;77.80
53748;DHT22;39655;53.210;5.768;2022-07-03T03:44:57;17.00;77.60
53748;DHT22;39655;53.210;5.768;2022-07-03T03:47:24;17.00;77.00
53748;DHT22;39655;53.210;5.768;2022-07-03T03:49:53;17.00;77.20
53748;DHT22;39655;53.210;5.768;2022-07-03T03:52:25;16.90;76.80
53748;DHT22;39655;53.210;5.768;2022-07-03T03:54:54;16.90;76.80
53748;DHT22;39655;53.210;5.768;2022-07-03T03:57:25;16.90;76.70
53748;DHT22;39655;53.210;5.768;2022-07-03T03:59:55;16.90;76.90
53748;DHT22;39655;53.210;5.768;2022-07-03T04:02:26;16.90;77.20
53748;DHT22;39655;53.210;5.768;2022-07-03T04:04:52;16.90;77.30
53748;DHT22;39655;53.210;5.768;2022-07-03T04:07:18;16.90;77.20
53748;DHT22;39655;53.210;5.768;2022-07-03T04:09:44;16.90;77.50
53748;DHT22;39655;53.210;5.768;2022-07-03T04:12:11;17.00;77.30
53748;DHT22;39655;53.210;5.768;2022-07-03T04:14:37;17.00;77.30
53748;DHT22;39655;53.210;5.768;2022-07-03T04:17:03;17.00;77.10
53748;DHT22;39655;53.210;5.768;2022-07-03T04:19:29;17.00;77.10
53748;DHT22;39655;53.210;5.768;2022-07-03T04:21:57;17.00;77.30
53748;DHT22;39655;53.210;5.768;2022-07-03T04:24:24;17.00;77.10
53748;DHT22;39655;53.210;5.768;2022-07-03T04:26:49;17.10;77.40
53748;DHT22;39655;53.210;5.768;2022-07-03T04:29:15;17.10;77.30
53748;DHT22;39655;53.210;5.768;2022-07-03T04:31:44;17.10;77.20
53748;DHT22;39655;53.210;5.768;2022-07-03T04:34:10;17.10;77.40
53748;DHT22;39655;53.210;5.768;2022-07-03T04:36:38;17.10;77.50
53748;DHT22;39655;53.210;5.768;2022-07-03T04:39:04;17.10;77.90
53748;DHT22;39655;53.210;5.768;2022-07-03T04:41:32;17.00;78.30
53748;DHT22;39655;53.210;5.768;2022-07-03T04:44:05;17.00;78.60
53748;DHT22;39655;53.210;5.768;2022-07-03T04:46:31;17.00;78.70
53748;DHT22;39655;53.210;5.768;2022-07-03T04:48:57;17.00;78.60
53748;DHT22;39655;53.210;5.768;2022-07-03T04:51:26;16.90;78.70
53748;DHT22;39655;53.210;5.768;2022-07-03T04:53:52;16.90;79.00
53748;DHT22;39655;53.210;5.768;2022-07-03T04:56:18;16.90;79.00
53748;DHT22;39655;53.210;5.768;2022-07-03T05:01:36;16.80;79.10
53748;DHT22;39655;53.210;5.768;2022-07-03T05:04:10;16.90;79.10
53748;DHT22;39655;53.210;5.768;2022-07-03T05:07:08;16.90;79.10
53748;DHT22;39655;53.210;5.768;2022-07-03T05:13:01;17.10;78.30
53748;DHT22;39655;53.210;5.768;2022-07-03T05:15:48;17.20;77.90
53748;DHT22;39655;53.210;5.768;2022-07-03T05:18:14;17.30;77.40
53748;DHT22;39655;53.210;5.768;2022-07-03T05:20:43;17.40;77.20
53748;DHT22;39655;53.210;5.768;2022-07-03T05:23:09;17.40;77.50
53748;DHT22;39655;53.210;5.768;2022-07-03T05:25:35;17.40;77.90
53748;DHT22;39655;53.210;5.768;2022-07-03T05:28:04;17.40;78.10
53748;DHT22;39655;53.210;5.768;2022-07-03T05:30:34;17.40;78.20
53748;DHT22;39655;53.210;5.768;2022-07-03T05:33:03;17.50;78.20
53748;DHT22;39655;53.210;5.768;2022-07-03T05:35:36;17.50;78.30
53748;DHT22;39655;53.210;5.768;2022-07-03T05:38:08;17.50;78.50
53748;DHT22;39655;53.210;5.768;2022-07-03T05:40:39;17.50;78.90
53748;DHT22;39655;53.210;5.768;2022-07-03T05:43:07;17.60;79.10
53748;DHT22;39655;53.210;5.768;2022-07-03T05:45:36;17.50;79.00
53748;DHT22;39655;53.210;5.768;2022-07-03T05:48:02;17.50;79.00
53748;DHT22;39655;53.210;5.768;2022-07-03T05:50:31;17.40;79.00
53748;DHT22;39655;53.210;5.768;2022-07-03T05:52:57;17.40;79.50
53748;DHT22;39655;53.210;5.768;2022-07-03T05:55:29;17.50;79.80
53748;DHT22;39655;53.210;5.768;2022-07-03T05:57:57;17.50;79.70
53748;DHT22;39655;53.210;5.768;2022-07-03T06:00:23;17.60;79.80
53748;DHT22;39655;53.210;5.768;2022-07-03T06:02:49;17.70;80.00
53748;DHT22;39655;53.210;5.768;2022-07-03T06:05:15;17.70;79.50
53748;DHT22;39655;53.210;5.768;2022-07-03T06:07:40;17.80;79.50
53748;DHT22;39655;53.210;5.768;2022-07-03T06:10:06;17.90;79.50
53748;DHT22;39655;53.210;5.768;2022-07-03T06:12:32;17.90;79.20
53748;DHT22;39655;53.210;5.768;2022-07-03T06:14:58;18.00;78.80
53748;DHT22;39655;53.210;5.768;2022-07-03T06:17:23;18.00;79.40
53748;DHT22;39655;53.210;5.768;2022-07-03T06:19:49;18.00;79.50
53748;DHT22;39655;53.210;5.768;2022-07-03T06:22:14;18.10;79.80
53748;DHT22;39655;53.210;5.768;2022-07-03T06:24:40;18.20;79.80
53748;DHT22;39655;53.210;5.768;2022-07-03T06:27:06;18.20;78.90
53748;DHT22;39655;53.210;5.768;2022-07-03T06:29:31;18.30;78.90
53748;DHT22;39655;53.210;5.768;2022-07-03T06:31:57;18.40;79.10
53748;DHT22;39655;53.210;5.768;2022-07-03T06:34:25;18.40;78.80
53748;DHT22;39655;53.210;5.768;2022-07-03T06:36:51;18.60;78.10
53748;DHT22;39655;53.210;5.768;2022-07-03T06:39:16;18.60;77.90
53748;DHT22;39655;53.210;5.768;2022-07-03T06:41:47;18.60;77.20
53748;DHT22;39655;53.210;5.768;2022-07-03T06:44:13;18.60;77.20
53748;DHT22;39655;53.210;5.768;2022-07-03T06:46:39;18.60;76.60
53748;DHT22;39655;53.210;5.768;2022-07-03T06:49:05;18.70;76.70
53748;DHT22;39655;53.210;5.768;2022-07-03T06:51:30;18.60;76.00
53748;DHT22;39655;53.210;5.768;2022-07-03T06:53:59;18.60;75.90
53748;DHT22;39655;53.210;5.768;2022-07-03T06:56:25;18.60;76.20
53748;DHT22;39655;53.210;5.768;2022-07-03T06:58:50;18.70;76.80
53748;DHT22;39655;53.210;5.768;2022-07-03T07:01:16;18.70;76.60
53748;DHT22;39655;53.210;5.768;2022-07-03T07:03:42;18.70;75.50
53748;DHT22;39655;53.210;5.768;2022-07-03T07:06:08;18.80;75.00
53748;DHT22;39655;53.210;5.768;2022-07-03T07:08:36;18.80;75.70
53748;DHT22;39655;53.210;5.768;2022-07-03T07:11:01;18.90;74.80
53748;DHT22;39655;53.210;5.768;2022-07-03T07:13:27;18.90;73.90
53748;DHT22;39655;53.210;5.768;2022-07-03T07:15:53;19.00;72.60
53748;DHT22;39655;53.210;5.768;2022-07-03T07:18:18;19.00;73.40
53748;DHT22;39655;53.210;5.768;2022-07-03T07:20:44;19.10;72.40
53748;DHT22;39655;53.210;5.768;2022-07-03T07:23:10;19.10;73.20
53748;DHT22;39655;53.210;5.768;2022-07-03T07:25:36;19.10;73.40
53748;DHT22;39655;53.210;5.768;2022-07-03T07:28:02;19.20;74.00
53748;DHT22;39655;53.210;5.768;2022-07-03T07:30:27;19.30;72.80
53748;DHT22;39655;53.210;5.768;2022-07-03T07:32:53;19.30;72.80
53748;DHT22;39655;53.210;5.768;2022-07-03T07:35:19;19.30;72.20
53748;DHT22;39655;53.210;5.768;2022-07-03T07:37:44;19.40;70.20
53748;DHT22;39655;53.210;5.768;2022-07-03T07:40:10;19.40;70.50
53748;DHT22;39655;53.210;5.768;2022-07-03T07:42:36;19.40;69.50
53748;DHT22;39655;53.210;5.768;2022-07-03T07:45:02;19.40;66.90
53748;DHT22;39655;53.210;5.768;2022-07-03T07:47:28;19.50;65.40
53748;DHT22;39655;53.210;5.768;2022-07-03T07:49:53;19.60;66.80
53748;DHT22;39655;53.210;5.768;2022-07-03T07:52:21;19.70;67.70
53748;DHT22;39655;53.210;5.768;2022-07-03T07:54:49;19.90;68.40
53748;DHT22;39655;53.210;5.768;2022-07-03T07:57:15;20.00;68.50
53748;DHT22;39655;53.210;5.768;2022-07-03T07:59:43;20.10;69.00
53748;DHT22;39655;53.210;5.768;2022-07-03T08:02:09;20.20;68.70
53748;DHT22;39655;53.210;5.768;2022-07-03T08:04:53;20.40;68.70
53748;DHT22;39655;53.210;5.768;2022-07-03T08:07:38;20.20;72.90
53748;DHT22;39655;53.210;5.768;2022-07-03T08:10:04;20.10;74.30
53748;DHT22;39655;53.210;5.768;2022-07-03T08:12:29;19.90;75.30
53748;DHT22;39655;53.210;5.768;2022-07-03T08:14:55;19.80;74.80
53748;DHT22;39655;53.210;5.768;2022-07-03T08:17:21;19.80;75.00
53748;DHT22;39655;53.210;5.768;2022-07-03T08:19:47;19.80;74.30
53748;DHT22;39655;53.210;5.768;2022-07-03T08:22:12;19.80;72.10
53748;DHT22;39655;53.210;5.768;2022-07-03T08:24:38;19.90;71.60
53748;DHT22;39655;53.210;5.768;2022-07-03T08:27:05;19.90;70.50
53748;DHT22;39655;53.210;5.768;2022-07-03T08:29:31;19.90;71.10
53748;DHT22;39655;53.210;5.768;2022-07-03T08:31:59;20.00;70.00
53748;DHT22;39655;53.210;5.768;2022-07-03T08:34:25;20.10;70.20
53748;DHT22;39655;53.210;5.768;2022-07-03T08:36:50;20.20;68.80
53748;DHT22;39655;53.210;5.768;2022-07-03T08:39:16;20.10;67.90
53748;DHT22;39655;53.210;5.768;2022-07-03T08:41:42;20.10;68.00
53748;DHT22;39655;53.210;5.768;2022-07-03T08:44:09;20.20;69.40
53748;DHT22;39655;53.210;5.768;2022-07-03T08:46:36;20.40;70.70
53748;DHT22;39655;53.210;5.768;2022-07-03T08:49:04;20.50;70.70
53748;DHT22;39655;53.210;5.768;2022-07-03T08:51:32;20.40;70.60
53748;DHT22;39655;53.210;5.768;2022-07-03T08:54:00;20.40;70.30
53748;DHT22;39655;53.210;5.768;2022-07-03T08:56:28;20.40;69.60
53748;DHT22;39655;53.210;5.768;2022-07-03T08:58:57;20.30;69.10
53748;DHT22;39655;53.210;5.768;2022-07-03T09:01:24;20.20;70.30
53748;DHT22;39655;53.210;5.768;2022-07-03T09:03:51;20.30;69.70
53748;DHT22;39655;53.210;5.768;2022-07-03T09:06:17;20.60;69.90
53748;DHT22;39655;53.210;5.768;2022-07-03T09:08:54;20.60;67.80
53748;DHT22;39655;53.210;5.768;2022-07-03T09:11:47;20.90;68.10
53748;DHT22;39655;53.210;5.768;2022-07-03T09:14:13;20.80;65.70
53748;DHT22;39655;53.210;5.768;2022-07-03T09:16:39;20.70;65.90
53748;DHT22;39655;53.210;5.768;2022-07-03T09:19:05;20.90;67.40
53748;DHT22;39655;53.210;5.768;2022-07-03T09:21:41;20.80;67.60
53748;DHT22;39655;53.210;5.768;2022-07-03T09:24:10;20.80;69.80
53748;DHT22;39655;53.210;5.768;2022-07-03T09:26:36;20.70;70.00
53748;DHT22;39655;53.210;5.768;2022-07-03T09:29:14;20.60;69.20
53748;DHT22;39655;53.210;5.768;2022-07-03T09:31:40;20.60;70.20
53748;DHT22;39655;53.210;5.768;2022-07-03T09:34:07;20.60;69.70
53748;DHT22;39655;53.210;5.768;2022-07-03T09:36:50;20.60;68.60
53748;DHT22;39655;53.210;5.768;2022-07-03T09:39:20;20.60;69.70
53748;DHT22;39655;53.210;5.768;2022-07-03T09:42:01;20.50;70.20
53748;DHT22;39655;53.210;5.768;2022-07-03T09:44:42;20.30;70.60
53748;DHT22;39655;53.210;5.768;2022-07-03T09:47:43;20.20;71.50
53748;DHT22;39655;53.210;5.768;2022-07-03T09:50:29;20.30;72.70
53748;DHT22;39655;53.210;5.768;2022-07-03T09:52:54;20.20;72.90
53748;DHT22;39655;53.210;5.768;2022-07-03T09:55:32;20.20;72.40
53748;DHT22;39655;53.210;5.768;2022-07-03T09:58:01;20.20;73.30
53748;DHT22;39655;53.210;5.768;2022-07-03T10:00:47;20.10;73.80
53748;DHT22;39655;53.210;5.768;2022-07-03T10:13:52;20.50;71.60
53748;DHT22;39655;53.210;5.768;2022-07-03T10:16:19;20.60;71.70
53748;DHT22;39655;53.210;5.768;2022-07-03T10:18:49;20.80;69.80
53748;DHT22;39655;53.210;5.768;2022-07-03T10:21:17;20.80;68.80
53748;DHT22;39655;53.210;5.768;2022-07-03T10:23:47;20.80;69.50
53748;DHT22;39655;53.210;5.768;2022-07-03T10:26:13;20.80;70.30
53748;DHT22;39655;53.210;5.768;2022-07-03T10:32:06;21.00;69.00
53748;DHT22;39655;53.210;5.768;2022-07-03T10:34:33;21.00;67.20
53748;DHT22;39655;53.210;5.768;2022-07-03T10:37:03;21.10;67.00
53748;DHT22;39655;53.210;5.768;2022-07-03T10:42:27;21.50;65.90
53748;DHT22;39655;53.210;5.768;2022-07-03T10:45:15;21.80;65.80
53748;DHT22;39655;53.210;5.768;2022-07-03T10:47:48;21.90;63.50
53748;DHT22;39655;53.210;5.768;2022-07-03T10:50:22;21.90;63.90
53748;DHT22;39655;53.210;5.768;2022-07-03T10:52:48;21.70;63.50
53748;DHT22;39655;53.210;5.768;2022-07-03T10:55:15;21.50;64.60
53748;DHT22;39655;53.210;5.768;2022-07-03T10:57:43;21.50;63.40
53748;DHT22;39655;53.210;5.768;2022-07-03T11:00:28;21.60;64.60
53748;DHT22;39655;53.210;5.768;2022-07-03T11:02:58;21.80;62.60
53748;DHT22;39655;53.210;5.768;2022-07-03T11:05:36;22.00;63.30
53748;DHT22;39655;53.210;5.768;2022-07-03T11:08:08;22.10;62.50
53748;DHT22;39655;53.210;5.768;2022-07-03T11:10:40;22.30;61.80
53748;DHT22;39655;53.210;5.768;2022-07-03T11:13:16;22.50;62.00
53748;DHT22;39655;53.210;5.768;2022-07-03T11:15:50;22.60;61.30
53748;DHT22;39655;53.210;5.768;2022-07-03T11:25:46;21.90;60.10
53748;DHT22;39655;53.210;5.768;2022-07-03T11:34:00;21.70;62.10
53748;DHT22;39655;53.210;5.768;2022-07-03T11:41:24;21.90;62.60
53748;DHT22;39655;53.210;5.768;2022-07-03T11:43:55;22.10;62.90
53748;DHT22;39655;53.210;5.768;2022-07-03T11:46:27;22.10;61.90
53748;DHT22;39655;53.210;5.768;2022-07-03T11:49:19;22.10;62.00
53748;DHT22;39655;53.210;5.768;2022-07-03T11:52:01;22.00;61.90
53748;DHT22;39655;53.210;5.768;2022-07-03T11:54:32;22.00;64.80
53748;DHT22;39655;53.210;5.768;2022-07-03T11:56:59;21.80;65.40
53748;DHT22;39655;53.210;5.768;2022-07-03T11:59:25;21.60;66.20
53748;DHT22;39655;53.210;5.768;2022-07-03T12:01:51;21.40;67.20
53748;DHT22;39655;53.210;5.768;2022-07-03T12:04:19;21.40;66.70
53748;DHT22;39655;53.210;5.768;2022-07-03T12:06:57;21.50;67.00
53748;DHT22;39655;53.210;5.768;2022-07-03T12:09:25;21.80;66.50
53748;DHT22;39655;53.210;5.768;2022-07-03T12:11:59;22.10;64.10
53748;DHT22;39655;53.210;5.768;2022-07-03T12:17:06;22.10;63.00
53748;DHT22;39655;53.210;5.768;2022-07-03T12:19:32;22.10;63.70
53748;DHT22;39655;53.210;5.768;2022-07-03T12:21:58;22.10;64.50
53748;DHT22;39655;53.210;5.768;2022-07-03T12:24:24;22.10;63.30
53748;DHT22;39655;53.210;5.768;2022-07-03T12:26:50;22.00;63.20
53748;DHT22;39655;53.210;5.768;2022-07-03T12:29:16;21.90;64.00
53748;DHT22;39655;53.210;5.768;2022-07-03T12:31:47;21.80;64.60
53748;DHT22;39655;53.210;5.768;2022-07-03T12:34:15;21.90;62.00
53748;DHT22;39655;53.210;5.768;2022-07-03T12:36:57;21.80;63.50
53748;DHT22;39655;53.210;5.768;2022-07-03T12:39:23;21.80;63.90
53748;DHT22;39655;53.210;5.768;2022-07-03T12:41:49;22.10;64.00
53748;DHT22;39655;53.210;5.768;2022-07-03T12:44:14;22.20;64.10
53748;DHT22;39655;53.210;5.768;2022-07-03T12:46:46;22.30;64.40
53748;DHT22;39655;53.210;5.768;2022-07-03T12:49:12;22.50;64.20
53748;DHT22;39655;53.210;5.768;2022-07-03T12:51:53;22.40;63.20
53748;DHT22;39655;53.210;5.768;2022-07-03T12:54:33;22.20;63.40
53748;DHT22;39655;53.210;5.768;2022-07-03T12:57:10;22.10;63.10
53748;DHT22;39655;53.210;5.768;2022-07-03T13:00:05;21.80;63.70
53748;DHT22;39655;53.210;5.768;2022-07-03T13:02:35;21.70;64.10
53748;DHT22;39655;53.210;5.768;2022-07-03T13:05:16;21.70;63.70
53748;DHT22;39655;53.210;5.768;2022-07-03T13:07:49;21.60;63.50
53748;DHT22;39655;53.210;5.768;2022-07-03T13:10:16;21.50;62.50
53748;DHT22;39655;53.210;5.768;2022-07-03T13:12:47;21.50;63.70
53748;DHT22;39655;53.210;5.768;2022-07-03T13:15:14;21.60;62.50
53748;DHT22;39655;53.210;5.768;2022-07-03T13:20:29;21.70;62.00
53748;DHT22;39655;53.210;5.768;2022-07-03T13:22:58;21.60;63.40
53748;DHT22;39655;53.210;5.768;2022-07-03T13:25:25;21.50;63.80
53748;DHT22;39655;53.210;5.768;2022-07-03T13:27:51;21.20;64.80
53748;DHT22;39655;53.210;5.768;2022-07-03T13:30:19;21.10;66.50
53748;DHT22;39655;53.210;5.768;2022-07-03T13:32:45;20.80;66.50
53748;DHT22;39655;53.210;5.768;2022-07-03T13:35:12;20.70;67.10
53748;DHT22;39655;53.210;5.768;2022-07-03T13:37:38;20.50;66.90
53748;DHT22;39655;53.210;5.768;2022-07-03T13:40:05;20.40;68.60
53748;DHT22;39655;53.210;5.768;2022-07-03T13:42:42;20.30;69.50
53748;DHT22;39655;53.210;5.768;2022-07-03T13:45:11;20.30;70.30
53748;DHT22;39655;53.210;5.768;2022-07-03T13:48:00;20.20;70.20
53748;DHT22;39655;53.210;5.768;2022-07-03T13:50:34;20.30;70.00
53748;DHT22;39655;53.210;5.768;2022-07-03T13:53:03;20.30;69.60
53748;DHT22;39655;53.210;5.768;2022-07-03T13:55:36;20.30;70.40
53748;DHT22;39655;53.210;5.768;2022-07-03T13:58:07;20.20;70.30
53748;DHT22;39655;53.210;5.768;2022-07-03T14:00:57;20.10;70.30
53748;DHT22;39655;53.210;5.768;2022-07-03T14:03:24;20.10;75.20
53748;DHT22;39655;53.210;5.768;2022-07-03T14:05:50;20.10;78.50
53748;DHT22;39655;53.210;5.768;2022-07-03T14:08:20;19.80;79.80
53748;DHT22;39655;53.210;5.768;2022-07-03T14:10:48;19.70;79.80
53748;DHT22;39655;53.210;5.768;2022-07-03T14:20:13;19.50;77.70
53748;DHT22;39655;53.210;5.768;2022-07-03T14:25:59;19.60;76.00
53748;DHT22;39655;53.210;5.768;2022-07-03T14:28:27;19.70;74.60
53748;DHT22;39655;53.210;5.768;2022-07-03T14:31:36;20.00;73.60
53748;DHT22;39655;53.210;5.768;2022-07-03T14:34:39;20.30;73.50
53748;DHT22;39655;53.210;5.768;2022-07-03T14:40:32;20.70;71.70
53748;DHT22;39655;53.210;5.768;2022-07-03T14:54:27;21.20;66.90
53748;DHT22;39655;53.210;5.768;2022-07-03T15:06:07;21.20;66.30
53748;DHT22;39655;53.210;5.768;2022-07-03T15:11:28;20.80;67.00
53748;DHT22;39655;53.210;5.768;2022-07-03T15:14:20;20.80;66.10
53748;DHT22;39655;53.210;5.768;2022-07-03T15:16:47;20.60;67.40
53748;DHT22;39655;53.210;5.768;2022-07-03T15:19:16;20.60;68.50
53748;DHT22;39655;53.210;5.768;2022-07-03T15:21:45;20.40;68.30
53748;DHT22;39655;53.210;5.768;2022-07-03T15:24:11;20.40;69.00
53748;DHT22;39655;53.210;5.768;2022-07-03T15:26:40;20.40;68.80
53748;DHT22;39655;53.210;5.768;2022-07-03T15:29:10;20.50;69.00
53748;DHT22;39655;53.210;5.768;2022-07-03T15:31:36;20.60;68.10
53748;DHT22;39655;53.210;5.768;2022-07-03T15:34:03;20.60;67.80
53748;DHT22;39655;53.210;5.768;2022-07-03T15:36:38;20.50;67.60
53748;DHT22;39655;53.210;5.768;2022-07-03T15:39:13;20.40;67.10
53748;DHT22;39655;53.210;5.768;2022-07-03T15:42:04;20.60;67.30
53748;DHT22;39655;53.210;5.768;2022-07-03T15:44:38;20.60;68.00
53748;DHT22;39655;53.210;5.768;2022-07-03T15:49:58;20.40;67.20
53748;DHT22;39655;53.210;5.768;2022-07-03T15:52:25;20.40;68.20
53748;DHT22;39655;53.210;5.768;2022-07-03T15:54:58;20.40;66.40
53748;DHT22;39655;53.210;5.768;2022-07-03T16:00:10;20.40;65.60
53748;DHT22;39655;53.210;5.768;2022-07-03T16:05:12;20.50;66.20
53748;DHT22;39655;53.210;5.768;2022-07-03T16:07:40;20.60;67.00
53748;DHT22;39655;53.210;5.768;2022-07-03T16:10:08;20.60;65.40
53748;DHT22;39655;53.210;5.768;2022-07-03T16:12:36;20.40;65.90
53748;DHT22;39655;53.210;5.768;2022-07-03T16:15:06;20.30;67.30
53748;DHT22;39655;53.210;5.768;2022-07-03T16:17:40;20.30;67.50
53748;DHT22;39655;53.210;5.768;2022-07-03T16:20:09;20.50;66.20
53748;DHT22;39655;53.210;5.768;2022-07-03T16:22:36;20.60;65.20
53748;DHT22;39655;53.210;5.768;2022-07-03T16:25:04;20.70;65.50
53748;DHT22;39655;53.210;5.768;2022-07-03T16:27:31;20.70;64.30
53748;DHT22;39655;53.210;5.768;2022-07-03T16:29:57;21.10;63.90
53748;DHT22;39655;53.210;5.768;2022-07-03T16:32:28;21.80;62.10
53748;DHT22;39655;53.210;5.768;2022-07-03T16:35:05;22.10;61.10
53748;DHT22;39655;53.210;5.768;2022-07-03T16:40:08;21.60;61.60
53748;DHT22;39655;53.210;5.768;2022-07-03T16:42:36;22.30;60.10
53748;DHT22;39655;53.210;5.768;2022-07-03T16:45:08;22.70;60.20
53748;DHT22;39655;53.210;5.768;2022-07-03T16:47:39;22.80;57.30
53748;DHT22;39655;53.210;5.768;2022-07-03T16:50:10;23.10;56.00
53748;DHT22;39655;53.210;5.768;2022-07-03T16:52:37;23.60;55.30
53748;DHT22;39655;53.210;5.768;2022-07-03T16:55:04;23.60;54.50
53748;DHT22;39655;53.210;5.768;2022-07-03T16:57:30;23.50;55.30
53748;DHT22;39655;53.210;5.768;2022-07-03T16:59:57;23.80;52.80
53748;DHT22;39655;53.210;5.768;2022-07-03T17:02:23;23.30;53.50
53748;DHT22;39655;53.210;5.768;2022-07-03T17:04:50;22.50;55.40
53748;DHT22;39655;53.210;5.768;2022-07-03T17:07:19;22.00;58.10
53748;DHT22;39655;53.210;5.768;2022-07-03T17:09:45;21.60;58.80
53748;DHT22;39655;53.210;5.768;2022-07-03T17:12:13;21.30;58.50
53748;DHT22;39655;53.210;5.768;2022-07-03T17:14:38;21.50;59.90
53748;DHT22;39655;53.210;5.768;2022-07-03T17:17:08;21.50;59.60
53748;DHT22;39655;53.210;5.768;2022-07-03T17:19:42;21.90;57.50
53748;DHT22;39655;53.210;5.768;2022-07-03T17:22:15;22.60;56.10
53748;DHT22;39655;53.210;5.768;2022-07-03T17:24:43;23.20;53.70
53748;DHT22;39655;53.210;5.768;2022-07-03T17:27:14;23.50;53.50
53748;DHT22;39655;53.210;5.768;2022-07-03T17:29:53;22.90;56.50
53748;DHT22;39655;53.210;5.768;2022-07-03T17:32:19;22.40;55.80
53748;DHT22;39655;53.210;5.768;2022-07-03T17:34:49;22.00;58.00
53748;DHT22;39655;53.210;5.768;2022-07-03T17:37:17;21.60;60.30
53748;DHT22;39655;53.210;5.768;2022-07-03T17:39:45;21.20;59.10
53748;DHT22;39655;53.210;5.768;2022-07-03T17:42:14;21.30;59.30
53748;DHT22;39655;53.210;5.768;2022-07-03T17:44:41;21.60;59.20
53748;DHT22;39655;53.210;5.768;2022-07-03T17:47:11;22.10;57.50
53748;DHT22;39655;53.210;5.768;2022-07-03T17:49:38;22.60;56.00